Gladewater, Texas
Current Conditions -  °F | °C
As of 3:53 PM on Thursday 18 Dec 2014 (Local Time) from KGGG Reporting Station
Haze Haze  
Wind Chill: 53°   Ceiling: 800
Heat Index: 53°   Visibility: 5mi
Dew Point: 47°   Wind: 5mph
Humidity: 80%   Direction: 40°NE
Pressure: 30.11"   Gusts: NA
Location:  32.54°N, 94.94°W
Report Text: KGGG 182153Z 04004KT 5SM HZ OVC008 12/08 A3011 RMK AO2 SLP197 T01170083
Loading
Personal Weather Stations






























Interactive Weather Map New forecast layout! Learn more

10-Day Weather Forecast

Advertisements
Track Severe Weather on mobile